Time;durP1;ratioP1;P1;durP2;ratioP2;P2;SDS_P1;SDS_P2;PMS_P1;PMS_P2;Temp;Humidity;BMP_temperature;BMP_pressure;BME280_temperature;BME280_humidity;BME280_pressure;Samples;Min_cycle;Max_cycle;Signal;HPM_P1;HPM_P2
2022/03/21 00:00:25;;;;;;;11.73;10.52;;;;;;;;;;5072782;28;24403;-50
2022/03/21 00:02:51;;;;;;;13.48;12.18;;;;;;;;;;5071557;28;24472;-52
2022/03/21 00:05:17;;;;;;;14.03;12.53;;;;;;;;;;5073298;28;24418;-51
2022/03/21 00:07:42;;;;;;;13.13;11.73;;;;;;;;;;5071130;28;24525;-51
2022/03/21 00:10:07;;;;;;;12.80;11.00;;;;;;;;;;5081971;28;24509;-51
2022/03/21 00:12:34;;;;;;;14.02;12.57;;;;;;;;;;5068678;28;24422;-51
2022/03/21 00:14:59;;;;;;;13.00;11.70;;;;;;;;;;5069716;28;24415;-52
2022/03/21 00:17:25;;;;;;;12.80;11.50;;;;;;;;;;5066876;28;24433;-50
2022/03/21 00:19:50;;;;;;;12.75;11.35;;;;;;;;;;5076814;28;24468;-51
2022/03/21 00:22:15;;;;;;;12.90;11.63;;;;;;;;;;5072838;28;24476;-51
2022/03/21 00:24:40;;;;;;;13.00;11.73;;;;;;;;;;5076111;28;24453;-50
2022/03/21 00:27:09;;;;;;;12.20;11.00;;;;;;;;;;5078909;28;24526;-51
2022/03/21 00:29:34;;;;;;;11.85;10.70;;;;;;;;;;5069570;28;24419;-53
2022/03/21 00:31:59;;;;;;;11.73;10.60;;;;;;;;;;5074888;28;24413;-51
2022/03/21 00:34:24;;;;;;;12.15;10.85;;;;;;;;;;5068120;28;24483;-52
2022/03/21 00:36:49;;;;;;;12.53;11.10;;;;;;;;;;5069590;28;24492;-52
2022/03/21 00:39:15;;;;;;;13.07;11.10;;;;;;;;;;5072463;28;24484;-51
2022/03/21 00:41:40;;;;;;;12.90;10.60;;;;;;;;;;5076747;28;24418;-51
2022/03/21 00:44:07;;;;;;;12.32;11.02;;;;;;;;;;5078420;28;24487;-51
2022/03/21 00:46:32;;;;;;;12.30;11.00;;;;;;;;;;5071997;28;25375;-51
2022/03/21 00:48:57;;;;;;;12.77;10.95;;;;;;;;;;5069754;28;24559;-51
2022/03/21 00:51:22;;;;;;;12.02;10.73;;;;;;;;;;5069735;28;24777;-54
2022/03/21 00:53:48;;;;;;;12.13;10.90;;;;;;;;;;5074745;28;24414;-51
2022/03/21 00:56:13;;;;;;;13.50;11.73;;;;;;;;;;5072997;28;24414;-50
2022/03/21 00:58:38;;;;;;;13.15;11.75;;;;;;;;;;5070612;28;24635;-50
2022/03/21 01:01:03;;;;;;;13.20;11.77;;;;;;;;;;5079346;28;24594;-50
2022/03/21 01:03:28;;;;;;;12.20;10.90;;;;;;;;;;5079519;28;24982;-52
2022/03/21 01:05:53;;;;;;;12.20;10.90;;;;;;;;;;5074190;28;24430;-52
2022/03/21 01:08:18;;;;;;;12.60;11.30;;;;;;;;;;5076366;28;24453;-51
2022/03/21 01:10:44;;;;;;;12.52;10.85;;;;;;;;;;5080842;28;24434;-51
2022/03/21 01:13:09;;;;;;;13.00;10.57;;;;;;;;;;5069605;28;24414;-51
2022/03/21 01:15:34;;;;;;;12.10;10.80;;;;;;;;;;5069043;28;24430;-51
2022/03/21 01:18:00;;;;;;;11.93;10.63;;;;;;;;;;5072719;28;24421;-51
2022/03/21 01:20:25;;;;;;;13.52;10.95;;;;;;;;;;5073153;28;24510;-52
2022/03/21 01:22:50;;;;;;;11.50;10.30;;;;;;;;;;5084898;28;24418;-50
2022/03/21 01:25:16;;;;;;;12.20;11.00;;;;;;;;;;5073881;28;24515;-50
2022/03/21 01:27:41;;;;;;;11.80;10.70;;;;;;;;;;5076460;28;24907;-50
2022/03/21 01:30:08;;;;;;;12.57;10.80;;;;;;;;;;5071508;28;24411;-51
2022/03/21 01:32:33;;;;;;;12.18;10.95;;;;;;;;;;5069064;28;24468;-51
2022/03/21 01:34:58;;;;;;;12.00;10.70;;;;;;;;;;5081823;28;24651;-51
2022/03/21 01:37:24;;;;;;;14.03;11.90;;;;;;;;;;5087977;28;24509;-51
2022/03/21 01:39:49;;;;;;;16.53;12.33;;;;;;;;;;5073910;28;24417;-51
2022/03/21 01:42:14;;;;;;;12.13;10.80;;;;;;;;;;5075875;28;24426;-51
2022/03/21 01:44:40;;;;;;;12.37;10.93;;;;;;;;;;5071705;28;24506;-51
2022/03/21 01:47:05;;;;;;;14.13;11.13;;;;;;;;;;5078978;28;24426;-51
2022/03/21 01:49:31;;;;;;;15.13;11.57;;;;;;;;;;5070859;28;24515;-51
2022/03/21 01:51:56;;;;;;;13.27;11.02;;;;;;;;;;5075825;28;24451;-51
2022/03/21 01:57:05;;;;;;;12.33;10.60;;;;;;;;;;5069962;28;24433;-51
2022/03/21 01:59:31;;;;;;;12.23;10.93;;;;;;;;;;5077880;28;24422;-51
2022/03/21 02:01:56;;;;;;;12.15;10.20;;;;;;;;;;5073061;28;24781;-51
2022/03/21 02:04:21;;;;;;;13.60;10.00;;;;;;;;;;5067808;28;24510;-51
2022/03/21 02:06:47;;;;;;;11.50;9.90;;;;;;;;;;5075566;28;24434;-50
2022/03/21 02:09:12;;;;;;;11.33;10.13;;;;;;;;;;5068395;28;25286;-52
2022/03/21 02:11:37;;;;;;;11.73;10.50;;;;;;;;;;5078290;28;24414;-51
2022/03/21 02:14:04;;;;;;;12.63;10.70;;;;;;;;;;5077585;28;25107;-52
2022/03/21 02:16:30;;;;;;;12.15;10.63;;;;;;;;;;5071523;28;24538;-51
2022/03/21 02:18:57;;;;;;;11.10;9.90;;;;;;;;;;5086036;28;24525;-52
2022/03/21 02:21:24;;;;;;;13.27;10.75;;;;;;;;;;5075300;28;24941;-51
2022/03/21 02:23:52;;;;;;;11.67;10.47;;;;;;;;;;5077275;28;24978;-51
2022/03/21 02:26:18;;;;;;;11.55;10.20;;;;;;;;;;5079103;28;24449;-52
2022/03/21 02:28:44;;;;;;;12.38;10.70;;;;;;;;;;5077294;28;24446;-51
2022/03/21 02:31:09;;;;;;;10.82;9.73;;;;;;;;;;5071267;28;24955;-51
2022/03/21 02:33:34;;;;;;;12.40;10.65;;;;;;;;;;5077942;28;24870;-51
2022/03/21 02:36:01;;;;;;;12.30;10.30;;;;;;;;;;5083676;28;24429;-52
2022/03/21 02:38:27;;;;;;;11.98;10.55;;;;;;;;;;5080278;28;24414;-51
2022/03/21 02:40:52;;;;;;;11.87;10.37;;;;;;;;;;5070026;28;24821;-52
2022/03/21 02:43:18;;;;;;;11.90;10.17;;;;;;;;;;5067396;28;24414;-52
2022/03/21 02:45:43;;;;;;;11.55;10.35;;;;;;;;;;5078476;28;25322;-52
2022/03/21 02:48:08;;;;;;;11.67;10.47;;;;;;;;;;5076955;28;24488;-51
2022/03/21 02:50:49;;;;;;;11.60;10.20;;;;;;;;;;5074284;28;24965;-51
2022/03/21 02:53:15;;;;;;;12.45;10.30;;;;;;;;;;5078462;28;24419;-50
2022/03/21 02:55:41;;;;;;;11.05;9.82;;;;;;;;;;5074114;28;24971;-51
2022/03/21 02:58:06;;;;;;;12.13;10.33;;;;;;;;;;5080728;28;24437;-50
2022/03/21 03:00:31;;;;;;;11.83;10.40;;;;;;;;;;5076684;28;25235;-50
2022/03/21 03:02:56;;;;;;;12.00;10.70;;;;;;;;;;5067169;28;24426;-50
2022/03/21 03:05:22;;;;;;;12.33;10.33;;;;;;;;;;5073465;28;24483;-50
2022/03/21 03:07:47;;;;;;;12.20;10.33;;;;;;;;;;5078197;28;25006;-52
2022/03/21 03:10:12;;;;;;;11.43;10.13;;;;;;;;;;5082309;28;24504;-50
2022/03/21 03:12:37;;;;;;;11.20;10.00;;;;;;;;;;5070686;28;24421;-50
2022/03/21 03:15:03;;;;;;;11.90;10.60;;;;;;;;;;5075404;28;24968;-50
2022/03/21 03:17:28;;;;;;;11.07;9.70;;;;;;;;;;5068681;28;24445;-50
2022/03/21 03:19:54;;;;;;;12.48;10.35;;;;;;;;;;5071294;28;24434;-51
2022/03/21 03:22:20;;;;;;;12.07;10.17;;;;;;;;;;5076529;28;25041;-50
2022/03/21 03:24:46;;;;;;;12.68;10.38;;;;;;;;;;5070810;28;24809;-51
2022/03/21 03:27:11;;;;;;;11.88;10.00;;;;;;;;;;5072084;28;24435;-51
2022/03/21 03:29:36;;;;;;;12.70;10.32;;;;;;;;;;5070951;28;25051;-50
2022/03/21 03:32:03;;;;;;;10.90;9.80;;;;;;;;;;5065405;28;24481;-51
2022/03/21 03:34:28;;;;;;;13.10;9.60;;;;;;;;;;5066659;28;25086;-52
2022/03/21 03:36:54;;;;;;;11.20;10.00;;;;;;;;;;5066901;28;24526;-51
2022/03/21 03:39:19;;;;;;;11.10;9.93;;;;;;;;;;5077113;28;24421;-51
2022/03/21 03:41:45;;;;;;;11.10;9.90;;;;;;;;;;5079128;28;24423;-50
2022/03/21 03:44:10;;;;;;;10.90;9.80;;;;;;;;;;5067184;28;24800;-50
2022/03/21 03:46:35;;;;;;;11.63;10.25;;;;;;;;;;5066958;28;24425;-50
2022/03/21 03:49:01;;;;;;;11.43;10.17;;;;;;;;;;5070790;28;24430;-51
2022/03/21 03:51:26;;;;;;;11.33;10.13;;;;;;;;;;5076506;28;24423;-51
2022/03/21 03:53:51;;;;;;;12.83;10.87;;;;;;;;;;5073670;28;24481;-50
2022/03/21 03:56:16;;;;;;;11.40;10.20;;;;;;;;;;5077100;28;24423;-50
2022/03/21 03:58:41;;;;;;;11.50;10.30;;;;;;;;;;5073452;28;24418;-50
2022/03/21 04:01:07;;;;;;;12.13;10.60;;;;;;;;;;5073395;28;25004;-51
2022/03/21 04:03:47;;;;;;;11.07;9.70;;;;;;;;;;5074427;28;24411;-51
2022/03/21 04:06:22;;;;;;;10.60;9.50;;;;;;;;;;5066075;28;24836;-51
2022/03/21 04:08:49;;;;;;;10.90;9.57;;;;;;;;;;5071441;28;24426;-51
2022/03/21 04:11:14;;;;;;;11.45;9.32;;;;;;;;;;5076624;28;24420;-51
2022/03/21 04:13:40;;;;;;;11.40;10.20;;;;;;;;;;5088012;28;24452;-51
2022/03/21 04:16:05;;;;;;;10.70;9.15;;;;;;;;;;5084400;28;24777;-51
2022/03/21 04:18:30;;;;;;;10.02;9.02;;;;;;;;;;5073022;28;24505;-51
2022/03/21 04:20:56;;;;;;;10.27;9.27;;;;;;;;;;5075624;28;25008;-52
2022/03/21 04:23:21;;;;;;;10.50;9.50;;;;;;;;;;5083831;28;24429;-51
2022/03/21 04:25:47;;;;;;;10.50;9.40;;;;;;;;;;5077188;28;24431;-52
2022/03/21 04:28:12;;;;;;;10.85;9.45;;;;;;;;;;5071803;28;24435;-52
2022/03/21 04:30:38;;;;;;;10.50;9.40;;;;;;;;;;5075739;28;24411;-51
2022/03/21 04:33:04;;;;;;;9.80;8.60;;;;;;;;;;5069863;28;24514;-51
2022/03/21 04:35:29;;;;;;;9.80;8.90;;;;;;;;;;5070118;28;24988;-51
2022/03/21 04:37:55;;;;;;;10.00;9.00;;;;;;;;;;5082073;28;24459;-52
2022/03/21 04:40:20;;;;;;;10.40;9.40;;;;;;;;;;5076206;28;24423;-51
2022/03/21 04:42:45;;;;;;;10.35;9.35;;;;;;;;;;5082407;28;24823;-51
2022/03/21 04:45:10;;;;;;;10.55;9.45;;;;;;;;;;5087127;28;24464;-51
2022/03/21 04:47:36;;;;;;;10.07;9.07;;;;;;;;;;5087502;28;24518;-51
2022/03/21 04:50:01;;;;;;;10.25;9.15;;;;;;;;;;5076265;28;24582;-52
2022/03/21 04:52:26;;;;;;;9.67;8.67;;;;;;;;;;5070368;28;24500;-52
2022/03/21 04:54:51;;;;;;;11.07;9.88;;;;;;;;;;5082755;28;24933;-51
2022/03/21 04:57:20;;;;;;;11.17;10.00;;;;;;;;;;5068234;28;24453;-49
2022/03/21 04:59:45;;;;;;;10.23;9.23;;;;;;;;;;5069271;28;24429;-50
2022/03/21 05:02:11;;;;;;;11.70;9.40;;;;;;;;;;5075209;28;24418;-50
2022/03/21 05:04:37;;;;;;;10.50;9.13;;;;;;;;;;5083984;28;24427;-50
2022/03/21 05:07:02;;;;;;;10.57;9.13;;;;;;;;;;5073841;28;24434;-50
2022/03/21 05:09:27;;;;;;;9.80;8.80;;;;;;;;;;5068962;28;24407;-50
2022/03/21 05:11:52;;;;;;;11.52;9.68;;;;;;;;;;5072819;28;26566;-50
2022/03/21 05:14:18;;;;;;;13.05;9.68;;;;;;;;;;5078670;28;24505;-50
2022/03/21 05:16:43;;;;;;;12.57;11.20;;;;;;;;;;5076700;28;24434;-50
2022/03/21 05:19:09;;;;;;;11.25;9.80;;;;;;;;;;5079806;28;24717;-50
2022/03/21 05:21:35;;;;;;;10.88;9.68;;;;;;;;;;5078494;28;24522;-52
2022/03/21 05:32:12;;;;;;;10.60;9.60;;;;;;;;;;5075750;28;24821;-51
2022/03/21 05:37:20;;;;;;;11.67;9.60;;;;;;;;;;5074881;28;24464;-51
2022/03/21 05:42:31;;;;;;;15.80;10.40;;;;;;;;;;5058315;28;24418;-52
2022/03/21 05:44:56;;;;;;;11.87;10.13;;;;;;;;;;5076329;28;24437;-50
2022/03/21 05:47:21;;;;;;;13.35;10.80;;;;;;;;;;5071742;28;24468;-51
2022/03/21 05:49:46;;;;;;;15.15;10.38;;;;;;;;;;5070058;28;25006;-51
2022/03/21 05:52:12;;;;;;;11.60;10.38;;;;;;;;;;5073540;28;24452;-51
2022/03/21 05:54:37;;;;;;;11.88;10.68;;;;;;;;;;5074474;28;24605;-51
2022/03/21 05:57:02;;;;;;;12.77;10.50;;;;;;;;;;5071994;28;24971;-51
2022/03/21 06:02:12;;;;;;;12.67;10.40;;;;;;;;;;5067678;28;24472;-51
2022/03/21 06:04:37;;;;;;;13.20;10.60;;;;;;;;;;5064903;28;25218;-51
2022/03/21 06:07:02;;;;;;;13.23;10.80;;;;;;;;;;5066856;28;24465;-51
2022/03/21 06:09:27;;;;;;;12.00;10.70;;;;;;;;;;5073917;28;24430;-50
2022/03/21 06:11:52;;;;;;;13.70;11.25;;;;;;;;;;5080314;28;24518;-50
2022/03/21 06:14:18;;;;;;;14.88;11.40;;;;;;;;;;5069615;28;24506;-50
2022/03/21 06:16:44;;;;;;;13.93;11.60;;;;;;;;;;5064932;28;24419;-51
2022/03/21 06:19:09;;;;;;;15.07;12.10;;;;;;;;;;5071798;28;24469;-50
2022/03/21 06:21:35;;;;;;;12.15;10.63;;;;;;;;;;5074443;28;24426;-51
2022/03/21 06:24:00;;;;;;;13.00;11.60;;;;;;;;;;5069381;28;24430;-51
2022/03/21 06:26:25;;;;;;;14.32;11.10;;;;;;;;;;5068363;28;24856;-51
2022/03/21 06:28:50;;;;;;;12.13;10.82;;;;;;;;;;5067170;28;24411;-51
2022/03/21 06:31:16;;;;;;;14.43;11.30;;;;;;;;;;5066611;28;24395;-50
2022/03/21 06:33:41;;;;;;;13.35;10.93;;;;;;;;;;5066859;28;24405;-50
2022/03/21 06:36:06;;;;;;;15.20;10.90;;;;;;;;;;5072528;28;24601;-51
2022/03/21 06:38:32;;;;;;;13.10;11.60;;;;;;;;;;5087064;28;24409;-51
2022/03/21 06:40:57;;;;;;;15.10;12.23;;;;;;;;;;5087876;28;24367;-50
2022/03/21 06:43:23;;;;;;;13.43;11.53;;;;;;;;;;5083634;28;25018;-51
2022/03/21 06:45:51;;;;;;;12.65;10.80;;;;;;;;;;5069857;28;24437;-51
2022/03/21 06:48:16;;;;;;;12.68;11.10;;;;;;;;;;5067355;28;24939;-51
2022/03/21 06:50:41;;;;;;;10.50;9.50;;;;;;;;;;5067505;28;24421;-51
2022/03/21 06:53:06;;;;;;;12.27;9.33;;;;;;;;;;5075788;28;24840;-50
2022/03/21 06:55:32;;;;;;;11.60;9.80;;;;;;;;;;5067030;28;24948;-51
2022/03/21 06:57:57;;;;;;;10.80;9.70;;;;;;;;;;5070371;28;24426;-51
2022/03/21 07:00:22;;;;;;;11.75;10.00;;;;;;;;;;5067737;28;24415;-50
2022/03/21 07:02:47;;;;;;;10.83;9.60;;;;;;;;;;5086473;28;24994;-51
2022/03/21 07:05:12;;;;;;;11.20;10.10;;;;;;;;;;5086820;28;24521;-51
2022/03/21 07:07:38;;;;;;;11.90;9.80;;;;;;;;;;5081738;28;24430;-51
2022/03/21 07:10:05;;;;;;;11.03;9.63;;;;;;;;;;5079502;28;24755;-51
2022/03/21 07:12:31;;;;;;;10.70;9.60;;;;;;;;;;5073186;28;24417;-51
2022/03/21 07:14:56;;;;;;;11.60;10.40;;;;;;;;;;5086390;28;24445;-51
2022/03/21 07:17:21;;;;;;;10.38;9.10;;;;;;;;;;5070092;28;24933;-50
2022/03/21 07:19:46;;;;;;;11.00;9.80;;;;;;;;;;5069994;28;24429;-51
2022/03/21 07:22:12;;;;;;;10.27;9.27;;;;;;;;;;5076055;28;24410;-50
2022/03/21 07:24:37;;;;;;;11.37;10.17;;;;;;;;;;5080002;28;24411;-54
2022/03/21 07:27:03;;;;;;;10.00;9.00;;;;;;;;;;5066469;28;25018;-51
2022/03/21 07:29:28;;;;;;;11.10;9.90;;;;;;;;;;5066689;28;24394;-51
2022/03/21 07:31:54;;;;;;;9.90;8.90;;;;;;;;;;5068238;28;25017;-50
2022/03/21 07:34:19;;;;;;;10.05;9.05;;;;;;;;;;5084127;28;24792;-51
2022/03/21 07:36:44;;;;;;;10.13;9.13;;;;;;;;;;5086507;28;24913;-51
2022/03/21 07:39:09;;;;;;;10.77;9.68;;;;;;;;;;5086581;28;24386;-51
2022/03/21 07:41:35;;;;;;;9.97;8.97;;;;;;;;;;5086663;28;24399;-51
2022/03/21 07:44:00;;;;;;;11.75;9.30;;;;;;;;;;5072487;28;24599;-50
2022/03/21 07:49:10;;;;;;;10.40;8.70;;;;;;;;;;5070655;28;24805;-51
2022/03/21 07:51:35;;;;;;;9.70;8.70;;;;;;;;;;5070071;28;24992;-51
2022/03/21 07:54:02;;;;;;;9.93;8.33;;;;;;;;;;5073716;28;24507;-50
2022/03/21 07:56:27;;;;;;;9.57;8.23;;;;;;;;;;5070769;28;24475;-51
2022/03/21 07:58:52;;;;;;;9.73;8.73;;;;;;;;;;5070065;28;24509;-50
2022/03/21 08:01:19;;;;;;;9.77;8.40;;;;;;;;;;5070382;28;24468;-51
2022/03/21 08:03:45;;;;;;;9.40;8.30;;;;;;;;;;5074257;28;24752;-50
2022/03/21 08:06:10;;;;;;;9.70;8.70;;;;;;;;;;5090520;28;24489;-50
2022/03/21 08:08:37;;;;;;;8.80;7.90;;;;;;;;;;5090218;28;24489;-50
2022/03/21 08:11:02;;;;;;;10.57;9.00;;;;;;;;;;5090837;28;24433;-50
2022/03/21 08:13:28;;;;;;;9.98;8.00;;;;;;;;;;5090147;28;24402;-52
2022/03/21 08:15:53;;;;;;;10.88;8.18;;;;;;;;;;5088342;28;24429;-51
2022/03/21 08:18:19;;;;;;;9.38;8.18;;;;;;;;;;5090372;28;24486;-51
2022/03/21 08:20:44;;;;;;;8.82;7.93;;;;;;;;;;5090094;28;24398;-51
2022/03/21 08:23:11;;;;;;;9.40;8.50;;;;;;;;;;5090084;28;24936;-51
2022/03/21 08:25:37;;;;;;;10.77;8.30;;;;;;;;;;5088012;28;24444;-51
2022/03/21 08:28:03;;;;;;;8.88;7.97;;;;;;;;;;5090000;28;24442;-51
2022/03/21 08:30:32;;;;;;;9.60;8.60;;;;;;;;;;5088510;28;24422;-51
2022/03/21 08:32:58;;;;;;;8.90;8.00;;;;;;;;;;5077037;28;24652;-50
2022/03/21 08:35:24;;;;;;;9.53;8.40;;;;;;;;;;5070150;28;24410;-52
2022/03/21 08:37:49;;;;;;;10.52;8.32;;;;;;;;;;5069726;28;24447;-51
2022/03/21 08:40:14;;;;;;;9.93;8.50;;;;;;;;;;5069534;28;24450;-51
2022/03/21 08:42:39;;;;;;;9.77;8.50;;;;;;;;;;5074077;28;24418;-51
2022/03/21 08:45:05;;;;;;;9.48;8.57;;;;;;;;;;5089735;28;24417;-51
2022/03/21 08:47:30;;;;;;;9.10;8.20;;;;;;;;;;5090069;28;24465;-51
2022/03/21 08:49:55;;;;;;;8.77;7.97;;;;;;;;;;5089860;28;24892;-51
2022/03/21 08:52:21;;;;;;;9.88;8.88;;;;;;;;;;5089583;28;24398;-51
2022/03/21 08:54:46;;;;;;;9.32;8.43;;;;;;;;;;5086414;28;24503;-51
2022/03/21 08:57:11;;;;;;;9.90;8.90;;;;;;;;;;5090002;28;25058;-51
2022/03/21 08:59:37;;;;;;;9.47;8.57;;;;;;;;;;5087245;28;24394;-51
2022/03/21 09:02:02;;;;;;;8.97;8.10;;;;;;;;;;5069247;28;24446;-52
2022/03/21 09:04:28;;;;;;;9.70;8.80;;;;;;;;;;5076952;28;24476;-51
2022/03/21 09:06:53;;;;;;;9.80;8.80;;;;;;;;;;5068714;28;24986;-51
2022/03/21 09:09:19;;;;;;;10.30;9.20;;;;;;;;;;5087694;28;24509;-51
2022/03/21 09:11:44;;;;;;;9.30;8.40;;;;;;;;;;5089452;28;24403;-51
2022/03/21 09:14:10;;;;;;;12.00;9.10;;;;;;;;;;5083798;28;24549;-52
2022/03/21 09:16:38;;;;;;;9.57;8.57;;;;;;;;;;5068877;28;24419;-52
2022/03/21 09:19:03;;;;;;;9.73;8.63;;;;;;;;;;5088713;28;25291;-51
2022/03/21 09:21:28;;;;;;;10.57;8.40;;;;;;;;;;5088980;28;24502;-52
2022/03/21 09:23:53;;;;;;;11.10;9.00;;;;;;;;;;5088671;28;24800;-52
2022/03/21 09:26:21;;;;;;;8.80;7.90;;;;;;;;;;5070550;28;24449;-51
2022/03/21 09:28:46;;;;;;;9.85;8.85;;;;;;;;;;5068579;28;24988;-51
2022/03/21 09:31:13;;;;;;;9.50;8.48;;;;;;;;;;5068723;28;24490;-52
2022/03/21 09:33:39;;;;;;;9.70;8.65;;;;;;;;;;5068361;28;24975;-51
2022/03/21 09:36:04;;;;;;;9.40;8.50;;;;;;;;;;5078996;28;24495;-51
2022/03/21 09:38:29;;;;;;;8.90;8.10;;;;;;;;;;5088955;28;24398;-51
2022/03/21 09:40:55;;;;;;;9.90;8.90;;;;;;;;;;5088816;28;24429;-51
2022/03/21 09:43:20;;;;;;;8.93;8.03;;;;;;;;;;5088589;28;24991;-51
2022/03/21 09:45:45;;;;;;;9.00;8.10;;;;;;;;;;5088431;28;24493;-51
2022/03/21 09:48:12;;;;;;;10.17;8.40;;;;;;;;;;5086351;28;24601;-51
2022/03/21 09:50:42;;;;;;;9.18;8.27;;;;;;;;;;5088479;28;24391;-52
2022/03/21 09:53:08;;;;;;;10.48;9.05;;;;;;;;;;5088354;28;24396;-51
2022/03/21 09:55:33;;;;;;;9.35;8.30;;;;;;;;;;5088603;28;24455;-51
2022/03/21 09:57:58;;;;;;;9.32;8.30;;;;;;;;;;5088081;28;24402;-51
2022/03/21 10:00:27;;;;;;;9.00;8.10;;;;;;;;;;5086504;28;24438;-52
2022/03/21 10:02:52;;;;;;;9.63;8.25;;;;;;;;;;5088070;28;24399;-51
2022/03/21 10:05:36;;;;;;;9.32;8.43;;;;;;;;;;5087903;28;24382;-51
2022/03/21 10:08:18;;;;;;;10.80;9.07;;;;;;;;;;5086760;28;24964;-51
2022/03/21 10:10:52;;;;;;;9.60;8.70;;;;;;;;;;5088329;28;24406;-51
2022/03/21 10:13:18;;;;;;;9.48;8.40;;;;;;;;;;5086663;28;25019;-51
2022/03/21 10:15:43;;;;;;;9.00;8.10;;;;;;;;;;5087335;28;24616;-50
2022/03/21 10:18:09;;;;;;;9.60;8.50;;;;;;;;;;5088062;28;24517;-49
2022/03/21 10:20:35;;;;;;;9.90;8.90;;;;;;;;;;5088036;28;24401;-49
2022/03/21 10:23:14;;;;;;;9.05;8.15;;;;;;;;;;5087499;28;24464;-50
2022/03/21 10:25:40;;;;;;;9.07;8.18;;;;;;;;;;5084577;28;24414;-50
2022/03/21 10:28:05;;;;;;;11.43;8.93;;;;;;;;;;5088017;28;24803;-50
2022/03/21 10:30:31;;;;;;;10.00;9.00;;;;;;;;;;5087929;28;24458;-50
2022/03/21 10:32:57;;;;;;;10.98;9.02;;;;;;;;;;5087493;28;24689;-51
2022/03/21 10:35:23;;;;;;;11.73;9.07;;;;;;;;;;5087684;28;24414;-51
2022/03/21 10:37:50;;;;;;;9.25;8.32;;;;;;;;;;5085569;28;24521;-50
2022/03/21 10:40:16;;;;;;;9.25;8.30;;;;;;;;;;5087297;28;24425;-50
2022/03/21 10:42:57;;;;;;;10.10;9.10;;;;;;;;;;5087465;28;24405;-50
2022/03/21 10:45:34;;;;;;;9.55;8.55;;;;;;;;;;5087249;28;24498;-50
2022/03/21 10:47:59;;;;;;;10.40;9.20;;;;;;;;;;5086849;28;25007;-56
2022/03/21 10:50:32;;;;;;;9.30;8.40;;;;;;;;;;5085559;28;24425;-50
2022/03/21 10:53:04;;;;;;;10.68;9.68;;;;;;;;;;5086889;28;24533;-50
2022/03/21 10:55:29;;;;;;;9.73;8.83;;;;;;;;;;5087368;28;24412;-50
2022/03/21 10:57:55;;;;;;;11.18;10.07;;;;;;;;;;5087076;28;24402;-51
2022/03/21 11:00:21;;;;;;;10.35;9.30;;;;;;;;;;5087080;28;24406;-50
2022/03/21 11:02:56;;;;;;;11.90;9.70;;;;;;;;;;5085701;28;24464;-50
2022/03/21 11:05:22;;;;;;;10.00;9.00;;;;;;;;;;5087001;28;24408;-49
2022/03/21 11:07:48;;;;;;;11.02;9.50;;;;;;;;;;5087127;28;24414;-50
2022/03/21 11:10:14;;;;;;;10.13;9.10;;;;;;;;;;5086903;28;24457;-50
2022/03/21 11:12:42;;;;;;;10.20;9.20;;;;;;;;;;5085450;28;24414;-50
2022/03/21 11:15:08;;;;;;;10.07;9.00;;;;;;;;;;5086648;28;24437;-50
2022/03/21 11:17:33;;;;;;;10.60;9.50;;;;;;;;;;5086760;28;24834;-51
2022/03/21 11:20:00;;;;;;;10.43;9.38;;;;;;;;;;5086593;28;24391;-50
2022/03/21 11:22:25;;;;;;;10.40;9.40;;;;;;;;;;5087049;28;24475;-51
2022/03/21 11:24:51;;;;;;;11.43;10.20;;;;;;;;;;5077648;28;24969;-50
2022/03/21 11:27:36;;;;;;;10.27;9.27;;;;;;;;;;5066463;28;25048;-50
2022/03/21 11:30:26;;;;;;;11.48;9.85;;;;;;;;;;5065865;28;21346;-50
2022/03/21 11:32:57;;;;;;;10.02;9.13;;;;;;;;;;5066407;28;25002;-50
2022/03/21 11:35:24;;;;;;;11.33;10.23;;;;;;;;;;5066182;28;24753;-50
2022/03/21 11:37:50;;;;;;;11.73;9.38;;;;;;;;;;5078931;28;25223;-50
2022/03/21 11:40:29;;;;;;;11.10;10.10;;;;;;;;;;5086653;28;24424;-50
2022/03/21 11:43:13;;;;;;;10.70;9.70;;;;;;;;;;5086440;28;24912;-50
2022/03/21 11:45:38;;;;;;;11.80;10.00;;;;;;;;;;5086579;28;24395;-50
2022/03/21 11:48:19;;;;;;;12.20;10.00;;;;;;;;;;5083879;28;24421;-51
2022/03/21 11:50:44;;;;;;;10.18;9.18;;;;;;;;;;5086632;28;24459;-49
2022/03/21 11:53:10;;;;;;;10.77;9.77;;;;;;;;;;5086260;28;24429;-50
2022/03/21 11:55:45;;;;;;;11.32;10.32;;;;;;;;;;5086571;28;24440;-50
2022/03/21 11:58:22;;;;;;;11.57;10.23;;;;;;;;;;5086427;28;25064;-50
2022/03/21 12:01:06;;;;;;;10.60;9.50;;;;;;;;;;5084861;28;24422;-50
2022/03/21 12:03:32;;;;;;;10.80;9.80;;;;;;;;;;5086452;28;25000;-50
2022/03/21 12:05:57;;;;;;;11.75;10.38;;;;;;;;;;5086920;28;24916;-50
2022/03/21 12:08:35;;;;;;;10.90;9.90;;;;;;;;;;5086714;28;24521;-50
2022/03/21 12:11:01;;;;;;;10.57;9.57;;;;;;;;;;5086663;28;24397;-50
2022/03/21 12:13:37;;;;;;;10.87;9.77;;;;;;;;;;5082025;28;24403;-50
2022/03/21 12:16:15;;;;;;;11.10;10.00;;;;;;;;;;5086728;28;24394;-50
2022/03/21 12:18:56;;;;;;;11.10;10.00;;;;;;;;;;5086702;28;24398;-50
2022/03/21 12:21:21;;;;;;;11.33;10.23;;;;;;;;;;5085878;28;24402;-49
2022/03/21 12:24:06;;;;;;;10.40;9.40;;;;;;;;;;5085812;28;24741;-51
2022/03/21 12:26:34;;;;;;;11.00;10.00;;;;;;;;;;5068898;28;24450;-50
2022/03/21 12:32:19;;;;;;;11.00;9.90;;;;;;;;;;5007601;28;24412;-50
2022/03/21 12:34:44;;;;;;;11.57;10.38;;;;;;;;;;5064066;28;24518;-50
2022/03/21 12:37:23;;;;;;;11.70;10.60;;;;;;;;;;5084278;28;24902;-51
2022/03/21 12:39:48;;;;;;;11.35;10.30;;;;;;;;;;5089846;28;24455;-51
2022/03/21 12:42:18;;;;;;;11.60;10.40;;;;;;;;;;5089758;28;24900;-50
2022/03/21 12:44:43;;;;;;;11.52;10.43;;;;;;;;;;5089893;28;24486;-51
2022/03/21 12:47:09;;;;;;;11.13;10.13;;;;;;;;;;5087581;28;24509;-51
2022/03/21 12:49:51;;;;;;;11.60;10.50;;;;;;;;;;5089916;28;24386;-50
2022/03/21 12:52:28;;;;;;;11.95;10.63;;;;;;;;;;5089091;28;24400;-50
2022/03/21 12:54:55;;;;;;;11.10;10.00;;;;;;;;;;5089599;28;24421;-50
2022/03/21 12:57:20;;;;;;;12.02;10.70;;;;;;;;;;5089291;28;24390;-50
2022/03/21 12:59:45;;;;;;;11.87;10.67;;;;;;;;;;5087991;28;24417;-50
2022/03/21 13:02:30;;;;;;;11.70;10.50;;;;;;;;;;5089662;28;24410;-50
2022/03/21 13:10:33;;;;;;;11.45;10.25;;;;;;;;;;5089408;28;24867;-50
2022/03/21 13:13:00;;;;;;;11.55;10.55;;;;;;;;;;5088038;28;24410;-51
2022/03/21 13:15:26;;;;;;;12.53;10.90;;;;;;;;;;5089168;28;24410;-51
2022/03/21 13:17:57;;;;;;;11.93;10.83;;;;;;;;;;5089012;28;24394;-50
2022/03/21 13:22:51;;;;;;;12.23;11.10;;;;;;;;;;5089311;28;24401;-51
2022/03/21 13:25:35;;;;;;;11.50;10.40;;;;;;;;;;5086135;28;24417;-50
2022/03/21 13:28:14;;;;;;;14.10;11.00;;;;;;;;;;5088581;28;24943;-51
2022/03/21 13:30:52;;;;;;;11.60;10.50;;;;;;;;;;5088787;28;24451;-51
2022/03/21 13:33:21;;;;;;;11.70;10.60;;;;;;;;;;5088744;28;24421;-50
2022/03/21 13:35:53;;;;;;;13.25;10.85;;;;;;;;;;5088797;28;24485;-50
2022/03/21 13:38:23;;;;;;;12.07;10.88;;;;;;;;;;5086675;28;24773;-50
2022/03/21 13:40:48;;;;;;;11.90;10.70;;;;;;;;;;5067008;28;24449;-51
2022/03/21 13:43:17;;;;;;;11.20;10.10;;;;;;;;;;5067865;28;24426;-51
2022/03/21 13:45:43;;;;;;;11.20;10.05;;;;;;;;;;5068167;28;24401;-50
2022/03/21 13:48:08;;;;;;;12.17;10.87;;;;;;;;;;5068422;28;24730;-50
2022/03/21 13:50:38;;;;;;;11.17;10.07;;;;;;;;;;5082702;28;25022;-50
2022/03/21 13:53:04;;;;;;;11.63;10.48;;;;;;;;;;5088205;28;24387;-50
2022/03/21 13:55:29;;;;;;;10.90;9.80;;;;;;;;;;5088504;28;24401;-50
2022/03/21 13:57:55;;;;;;;10.80;9.80;;;;;;;;;;5088245;28;24482;-50
2022/03/21 14:00:25;;;;;;;10.80;9.80;;;;;;;;;;5088129;28;24437;-50
2022/03/21 14:02:50;;;;;;;10.38;9.38;;;;;;;;;;5085587;28;24475;-51
2022/03/21 14:05:20;;;;;;;9.65;8.75;;;;;;;;;;5082603;28;24509;-50
2022/03/21 14:07:49;;;;;;;10.60;9.60;;;;;;;;;;5068156;28;24576;-50
2022/03/21 14:10:15;;;;;;;10.13;9.13;;;;;;;;;;5071133;28;24406;-50
2022/03/21 14:12:41;;;;;;;10.65;9.65;;;;;;;;;;5087982;28;24409;-50
2022/03/21 14:15:06;;;;;;;10.50;9.50;;;;;;;;;;5087088;28;24398;-50
2022/03/21 14:17:32;;;;;;;9.83;8.87;;;;;;;;;;5067633;28;24549;-50
2022/03/21 14:19:57;;;;;;;10.30;9.20;;;;;;;;;;5067546;28;24422;-51
2022/03/21 14:22:22;;;;;;;9.50;8.70;;;;;;;;;;5074375;28;24443;-50
2022/03/21 14:24:47;;;;;;;9.77;8.87;;;;;;;;;;5087980;28;24752;-51
2022/03/21 14:27:12;;;;;;;10.43;9.43;;;;;;;;;;5086815;28;24453;-51
2022/03/21 14:29:38;;;;;;;9.65;8.75;;;;;;;;;;5087986;28;24794;-51
2022/03/21 14:32:04;;;;;;;10.40;9.40;;;;;;;;;;5083265;28;24418;-50
2022/03/21 14:34:29;;;;;;;10.52;9.43;;;;;;;;;;5067618;28;24421;-50
2022/03/21 14:36:54;;;;;;;10.50;9.50;;;;;;;;;;5067135;28;25011;-51
2022/03/21 14:39:20;;;;;;;10.50;9.50;;;;;;;;;;5067179;28;24452;-51
2022/03/21 14:41:45;;;;;;;10.13;9.13;;;;;;;;;;5073222;28;24418;-50
2022/03/21 14:44:10;;;;;;;10.38;9.48;;;;;;;;;;5078900;28;24513;-52
2022/03/21 14:46:35;;;;;;;10.20;9.20;;;;;;;;;;5066961;28;24956;-51
2022/03/21 14:49:01;;;;;;;9.60;8.70;;;;;;;;;;5071996;28;24423;-50
2022/03/21 14:51:26;;;;;;;10.00;9.03;;;;;;;;;;5073957;28;25240;-52
2022/03/21 14:53:51;;;;;;;10.03;9.13;;;;;;;;;;5067241;28;24415;-51
2022/03/21 14:56:17;;;;;;;10.13;9.13;;;;;;;;;;5071809;28;24429;-50